Time;durP1;ratioP1;P1;durP2;ratioP2;P2;SDS_P1;SDS_P2;PMS_P1;PMS_P2;Temp;Humidity;BMP_temperature;BMP_pressure;BME280_temperature;BME280_humidity;BME280_pressure;Samples;Min_cycle;Max_cycle;Signal;HPM_P1;HPM_P2
2022/10/18 00:02:06;;;;;;;12.02;3.85;;;9.50;99.90;;;;;;5035416;28;20104;-67
2022/10/18 00:04:33;;;;;;;8.25;3.17;;;9.50;99.90;;;;;;5036864;28;20041;-66
2022/10/18 00:07:00;;;;;;;11.13;3.95;;;9.50;99.90;;;;;;5054101;28;20122;-72
2022/10/18 00:09:27;;;;;;;13.02;5.95;;;9.50;99.90;;;;;;5036271;28;20052;-65
2022/10/18 00:11:54;;;;;;;7.95;3.58;;;9.50;99.90;;;;;;5053450;28;20045;-66
2022/10/18 00:14:21;;;;;;;9.40;2.85;;;9.50;99.90;;;;;;5036221;28;20080;-66
2022/10/18 00:16:48;;;;;;;10.65;3.83;;;9.50;99.90;;;;;;5035922;28;20072;-66
2022/10/18 00:19:15;;;;;;;7.00;3.15;;;9.40;99.90;;;;;;5052473;28;20393;-66
2022/10/18 00:21:42;;;;;;;9.52;3.53;;;9.40;99.90;;;;;;5052685;28;20045;-66
2022/10/18 00:24:09;;;;;;;9.23;2.92;;;9.40;99.90;;;;;;5052465;28;20045;-66
2022/10/18 00:26:35;;;;;;;12.10;3.35;;;9.30;99.90;;;;;;5054411;28;20175;-66
2022/10/18 00:29:03;;;;;;;7.85;2.72;;;9.30;99.90;;;;;;5052324;28;20095;-66
2022/10/18 00:31:35;;;;;;;7.35;2.47;;;9.20;99.90;;;;;;5052798;28;20049;-66
2022/10/18 00:34:13;;;;;;;9.38;2.95;;;9.20;99.90;;;;;;5051909;28;20099;-64
2022/10/18 00:36:40;;;;;;;7.82;2.88;;;9.20;99.90;;;;;;5053835;28;20049;-65
2022/10/18 00:39:08;;;;;;;6.10;2.55;;;9.10;99.90;;;;;;5051588;28;20052;-65
2022/10/18 00:41:36;;;;;;;7.00;3.17;;;9.10;99.90;;;;;;5051913;28;20048;-65
2022/10/18 00:44:26;;;;;;;6.30;2.85;;;9.10;99.90;;;;;;5051895;28;20074;-65
2022/10/18 00:46:56;;;;;;;5.40;2.65;;;9.10;99.90;;;;;;5052346;28;20048;-65
2022/10/18 00:49:35;;;;;;;4.70;2.75;;;9.00;99.90;;;;;;5054364;28;20106;-64
2022/10/18 00:52:10;;;;;;;6.90;2.63;;;9.00;99.90;;;;;;5051625;28;20041;-65
2022/10/18 00:54:39;;;;;;;7.38;3.17;;;8.90;99.90;;;;;;5051892;28;20044;-65
2022/10/18 00:57:06;;;;;;;24.60;5.28;;;8.90;99.90;;;;;;5052421;28;20102;-65
2022/10/18 00:59:33;;;;;;;4.80;2.40;;;8.90;99.90;;;;;;5052032;28;20391;-65
2022/10/18 01:02:00;;;;;;;8.55;3.70;;;8.80;99.90;;;;;;5052578;28;20037;-65
2022/10/18 01:04:27;;;;;;;6.93;2.88;;;8.80;99.90;;;;;;5051520;28;20128;-65
2022/10/18 01:06:56;;;;;;;6.80;2.30;;;8.80;99.90;;;;;;5052828;28;20041;-65
2022/10/18 01:09:57;;;;;;;5.32;3.28;;;8.80;99.90;;;;;;5035984;28;20052;-65
2022/10/18 01:12:31;;;;;;;5.00;2.63;;;8.70;99.90;;;;;;5052626;28;20045;-65
2022/10/18 01:15:31;;;;;;;6.03;2.38;;;8.70;99.90;;;;;;5040078;28;20163;-65
2022/10/18 01:18:00;;;;;;;5.50;2.55;;;8.60;99.90;;;;;;5055842;28;20167;-65
2022/10/18 01:20:52;;;;;;;10.07;2.45;;;8.60;99.90;;;;;;5056176;28;20407;-66
2022/10/18 01:23:32;;;;;;;8.00;2.65;;;8.60;99.90;;;;;;5055631;28;20099;-65
2022/10/18 01:26:25;;;;;;;5.72;3.10;;;8.60;99.90;;;;;;5056336;28;20107;-65
2022/10/18 01:29:12;;;;;;;6.38;3.28;;;8.50;99.90;;;;;;5057409;28;20043;-65
2022/10/18 01:31:48;;;;;;;5.45;2.47;;;8.50;99.90;;;;;;5056075;28;20045;-65
2022/10/18 01:34:16;;;;;;;4.65;2.30;;;8.50;99.90;;;;;;5055755;28;20132;-65
2022/10/18 01:36:47;;;;;;;7.78;2.58;;;8.50;99.90;;;;;;5055056;28;20440;-65
2022/10/18 01:39:16;;;;;;;5.43;2.25;;;8.40;99.90;;;;;;5055168;28;20077;-65
2022/10/18 01:41:43;;;;;;;8.87;2.87;;;8.40;99.90;;;;;;5055273;28;20495;-65
2022/10/18 01:44:14;;;;;;;7.95;2.30;;;8.40;99.90;;;;;;5055268;28;20331;-65
2022/10/18 01:46:41;;;;;;;6.40;2.58;;;8.30;99.90;;;;;;5055731;28;20041;-65
2022/10/18 01:49:08;;;;;;;4.57;2.38;;;8.40;99.90;;;;;;5055057;28;20053;-65
2022/10/18 01:51:35;;;;;;;5.20;2.60;;;8.40;99.90;;;;;;5056250;28;20045;-65
2022/10/18 01:54:02;;;;;;;7.88;2.78;;;8.30;99.90;;;;;;5055433;28;20083;-64
2022/10/18 01:56:31;;;;;;;7.53;2.50;;;8.30;99.90;;;;;;5056360;28;20052;-65
2022/10/18 01:59:26;;;;;;;4.22;2.65;;;8.30;99.90;;;;;;5055698;28;20041;-64
2022/10/18 02:02:12;;;;;;;4.03;2.20;;;8.30;99.90;;;;;;5056710;28;20045;-64
2022/10/18 02:04:53;;;;;;;4.28;2.17;;;8.30;99.90;;;;;;5055656;28;20044;-64
2022/10/18 02:07:40;;;;;;;6.35;2.65;;;8.30;99.90;;;;;;5055638;28;20094;-64
2022/10/18 02:10:30;;;;;;;3.55;1.92;;;8.30;99.90;;;;;;5055678;28;20122;-65
2022/10/18 02:12:57;;;;;;;8.55;3.95;;;8.30;99.90;;;;;;5056680;28;20115;-65
2022/10/18 02:15:31;;;;;;;6.70;2.78;;;8.30;99.90;;;;;;5054629;28;20045;-65
2022/10/18 02:17:58;;;;;;;9.55;2.25;;;8.30;99.90;;;;;;5054581;28;20095;-65
2022/10/18 02:20:25;;;;;;;5.82;3.05;;;8.20;99.90;;;;;;5038332;28;20053;-65
2022/10/18 02:22:53;;;;;;;5.63;2.05;;;8.20;99.90;;;;;;5038820;28;20045;-65
2022/10/18 02:25:22;;;;;;;3.60;1.80;;;8.20;99.90;;;;;;5053643;28;20376;-65
2022/10/18 02:27:50;;;;;;;4.35;2.25;;;8.10;99.90;;;;;;5054218;28;20550;-65
2022/10/18 02:30:17;;;;;;;7.50;2.60;;;8.10;99.90;;;;;;5038214;28;20098;-65
2022/10/18 02:32:56;;;;;;;5.10;3.13;;;8.10;99.90;;;;;;5054230;28;20545;-65
2022/10/18 02:35:38;;;;;;;2.97;1.80;;;8.00;99.90;;;;;;5055421;28;20045;-64
2022/10/18 02:38:05;;;;;;;6.05;2.47;;;8.00;99.90;;;;;;5054399;28;20114;-65
2022/10/18 02:40:32;;;;;;;5.47;1.90;;;8.00;99.90;;;;;;5054222;28;20052;-65
2022/10/18 02:42:59;;;;;;;3.13;1.58;;;8.00;99.90;;;;;;5054087;28;20068;-65
2022/10/18 02:45:26;;;;;;;7.55;2.50;;;7.90;99.90;;;;;;5054762;28;20048;-65
2022/10/18 02:47:53;;;;;;;5.47;2.40;;;7.90;99.90;;;;;;5037516;28;20048;-65
2022/10/18 02:50:20;;;;;;;4.45;2.05;;;7.90;99.90;;;;;;5055878;28;20040;-65
2022/10/18 02:52:46;;;;;;;4.10;1.90;;;7.90;99.90;;;;;;5053805;28;20123;-65
2022/10/18 02:55:14;;;;;;;4.10;2.15;;;7.90;99.90;;;;;;5055005;28;20049;-65
2022/10/18 02:57:41;;;;;;;7.82;1.92;;;7.80;99.90;;;;;;5037660;28;20041;-65
2022/10/18 03:00:08;;;;;;;5.50;2.08;;;7.80;99.90;;;;;;5053964;28;20048;-65
2022/10/18 03:02:35;;;;;;;5.38;2.17;;;7.80;99.90;;;;;;5055016;28;20250;-65
2022/10/18 03:05:02;;;;;;;5.63;3.08;;;7.80;99.90;;;;;;5055306;28;20049;-65
2022/10/18 03:07:29;;;;;;;5.63;2.15;;;7.80;99.90;;;;;;5038130;28;20426;-65
2022/10/18 03:09:57;;;;;;;3.50;1.92;;;7.70;99.90;;;;;;5054675;28;20089;-65
2022/10/18 03:12:23;;;;;;;7.80;2.35;;;7.70;99.90;;;;;;5054318;28;20374;-65
2022/10/18 03:14:50;;;;;;;6.20;2.33;;;7.70;99.90;;;;;;5054631;28;20472;-65
2022/10/18 03:17:17;;;;;;;5.60;2.55;;;7.70;99.90;;;;;;5054530;28;20044;-65
2022/10/18 03:19:44;;;;;;;5.60;2.72;;;7.60;99.90;;;;;;5055422;28;20103;-65
2022/10/18 03:22:11;;;;;;;7.90;2.08;;;7.60;99.90;;;;;;5054510;28;20048;-65
2022/10/18 03:24:38;;;;;;;4.32;2.17;;;7.60;99.90;;;;;;5054422;28;20480;-65
2022/10/18 03:27:05;;;;;;;3.83;1.80;;;7.60;99.90;;;;;;5053089;28;20060;-65
2022/10/18 03:29:31;;;;;;;10.95;2.58;;;7.50;99.90;;;;;;5055609;28;20427;-65
2022/10/18 03:31:58;;;;;;;6.78;2.03;;;7.50;99.90;;;;;;5054525;28;20040;-65
2022/10/18 03:34:25;;;;;;;6.80;3.22;;;7.50;99.90;;;;;;5054448;28;20048;-70
2022/10/18 03:36:53;;;;;;;33.38;22.58;;;7.50;99.90;;;;;;5052676;28;20531;-65
2022/10/18 03:39:20;;;;;;;26.27;6.60;;;7.50;99.90;;;;;;5054479;28;20457;-65
2022/10/18 03:41:47;;;;;;;6.88;3.75;;;7.50;99.90;;;;;;5054841;28;20048;-65
2022/10/18 03:44:14;;;;;;;5.88;3.13;;;7.50;99.90;;;;;;5054346;28;20072;-65
2022/10/18 03:46:41;;;;;;;5.57;2.53;;;7.50;99.90;;;;;;5054959;28;20069;-65
2022/10/18 03:49:08;;;;;;;7.45;2.53;;;7.50;99.90;;;;;;5054871;28;20045;-65
2022/10/18 03:51:34;;;;;;;6.30;2.92;;;7.50;99.90;;;;;;5053482;28;20040;-65
2022/10/18 03:54:01;;;;;;;3.25;1.92;;;7.40;99.90;;;;;;5053928;28;20041;-65
2022/10/18 03:56:28;;;;;;;7.35;2.90;;;7.40;99.90;;;;;;5054534;28;20469;-65
2022/10/18 03:58:55;;;;;;;5.72;2.25;;;7.40;99.90;;;;;;5053595;28;20376;-65
2022/10/18 04:01:22;;;;;;;5.80;1.88;;;7.30;99.90;;;;;;5054108;28;20067;-65
2022/10/18 04:03:49;;;;;;;4.03;2.42;;;7.30;99.90;;;;;;5054499;28;20045;-65
2022/10/18 04:06:16;;;;;;;4.13;2.08;;;7.30;99.90;;;;;;5053871;28;20048;-65
2022/10/18 04:08:43;;;;;;;3.40;1.63;;;7.30;99.90;;;;;;5053538;28;20484;-65
2022/10/18 04:11:11;;;;;;;8.05;1.70;;;7.20;99.90;;;;;;5053589;28;20041;-65
2022/10/18 04:13:38;;;;;;;4.10;2.03;;;7.20;99.90;;;;;;5052576;28;20080;-65
2022/10/18 04:16:05;;;;;;;8.20;2.38;;;7.20;99.90;;;;;;5052447;28;20040;-65
2022/10/18 04:18:31;;;;;;;8.05;2.42;;;7.20;99.90;;;;;;5053640;28;20072;-65
2022/10/18 04:20:58;;;;;;;5.75;1.88;;;7.20;99.90;;;;;;5053603;28;20056;-65
2022/10/18 04:23:25;;;;;;;3.65;1.75;;;7.20;99.90;;;;;;5054061;28;20041;-65
2022/10/18 04:25:52;;;;;;;5.13;1.80;;;7.20;99.90;;;;;;5052103;28;20445;-65
2022/10/18 04:28:19;;;;;;;3.78;1.70;;;7.10;99.90;;;;;;5052093;28;20118;-65
2022/10/18 04:30:52;;;;;;;7.00;2.45;;;7.10;99.90;;;;;;5052968;28;20106;-65
2022/10/18 04:33:19;;;;;;;5.75;2.33;;;7.10;99.90;;;;;;5053106;28;20037;-65
2022/10/18 04:35:46;;;;;;;6.70;3.40;;;7.00;99.90;;;;;;5052144;28;20045;-65
2022/10/18 04:38:13;;;;;;;3.30;1.80;;;7.00;99.90;;;;;;5053275;28;20045;-65
2022/10/18 04:40:40;;;;;;;6.78;2.20;;;7.00;99.90;;;;;;5053022;28;20542;-65
2022/10/18 04:43:07;;;;;;;5.95;2.53;;;7.00;99.90;;;;;;5051756;28;20508;-65
2022/10/18 04:45:34;;;;;;;4.13;1.98;;;7.00;99.90;;;;;;5051704;28;20477;-65
2022/10/18 04:48:00;;;;;;;3.38;1.40;;;7.00;99.90;;;;;;5052387;28;20097;-65
2022/10/18 04:50:27;;;;;;;7.80;2.53;;;7.00;99.90;;;;;;5035341;28;20057;-65
2022/10/18 04:52:54;;;;;;;3.58;1.70;;;7.00;99.90;;;;;;5035506;28;20044;-65
2022/10/18 04:55:21;;;;;;;8.80;2.15;;;6.90;99.90;;;;;;5051545;28;20045;-65
2022/10/18 04:57:48;;;;;;;6.93;2.00;;;6.90;99.90;;;;;;5053471;28;20106;-65
2022/10/18 05:00:15;;;;;;;4.47;1.88;;;6.90;99.90;;;;;;5034814;28;20511;-65
2022/10/18 05:02:42;;;;;;;3.78;2.13;;;6.90;99.90;;;;;;5052762;28;20121;-65
2022/10/18 05:05:09;;;;;;;4.40;2.05;;;6.80;99.90;;;;;;5051275;28;20361;-65
2022/10/18 05:07:39;;;;;;;4.20;1.90;;;6.80;99.90;;;;;;5052448;28;20037;-65
2022/10/18 05:10:07;;;;;;;6.45;2.50;;;6.80;99.90;;;;;;5052464;28;20171;-65
2022/10/18 05:12:34;;;;;;;4.50;1.95;;;6.80;99.90;;;;;;5052380;28;20037;-65
2022/10/18 05:15:01;;;;;;;4.20;2.10;;;6.80;99.90;;;;;;5051468;28;20041;-65
2022/10/18 05:17:28;;;;;;;8.90;2.92;;;6.80;99.90;;;;;;5051220;28;20486;-65
2022/10/18 05:19:54;;;;;;;4.22;1.80;;;6.80;99.90;;;;;;5050924;28;20087;-65
2022/10/18 05:22:21;;;;;;;7.50;2.72;;;6.80;99.90;;;;;;5052249;28;20080;-65
2022/10/18 05:24:48;;;;;;;5.22;1.77;;;6.80;99.90;;;;;;5052885;28;20044;-65
2022/10/18 05:27:15;;;;;;;4.55;2.15;;;6.80;99.90;;;;;;5051499;28;20045;-65
2022/10/18 05:29:42;;;;;;;3.60;1.90;;;6.70;99.90;;;;;;5052234;28;20056;-65
2022/10/18 05:32:09;;;;;;;8.38;1.55;;;6.70;99.90;;;;;;5051626;28;20083;-65
2022/10/18 05:34:36;;;;;;;3.63;1.90;;;6.70;99.90;;;;;;5053541;28;20045;-65
2022/10/18 05:37:02;;;;;;;6.18;2.53;;;6.70;99.90;;;;;;5052472;28;20041;-65
2022/10/18 05:39:29;;;;;;;4.63;2.05;;;6.70;99.90;;;;;;5035089;28;20044;-65
2022/10/18 05:41:57;;;;;;;5.22;2.03;;;6.70;99.90;;;;;;5034866;28;20496;-65
2022/10/18 05:44:23;;;;;;;5.68;2.15;;;6.70;99.90;;;;;;5052236;28;20457;-65
2022/10/18 05:46:50;;;;;;;5.13;1.90;;;6.70;99.90;;;;;;5051453;28;20045;-65
2022/10/18 05:49:18;;;;;;;7.18;2.25;;;6.70;99.90;;;;;;5051365;28;20053;-65
2022/10/18 05:51:44;;;;;;;6.25;3.22;;;6.60;99.90;;;;;;5052993;28;20465;-65
2022/10/18 05:54:11;;;;;;;5.22;2.58;;;6.60;99.90;;;;;;5051345;28;20041;-65
2022/10/18 05:56:39;;;;;;;9.68;3.30;;;6.60;99.90;;;;;;5051302;28;20060;-65
2022/10/18 05:59:10;;;;;;;5.82;2.20;;;6.60;99.90;;;;;;5035367;28;20040;-65
2022/10/18 06:01:38;;;;;;;4.15;2.60;;;6.60;99.90;;;;;;5055559;28;20106;-65
2022/10/18 06:04:05;;;;;;;5.47;2.75;;;6.50;99.90;;;;;;5054941;28;20094;-65
2022/10/18 06:06:32;;;;;;;5.72;2.20;;;6.60;99.90;;;;;;5054410;28;20067;-65
2022/10/18 06:08:59;;;;;;;6.45;2.78;;;6.60;99.90;;;;;;5055784;28;20049;-65
2022/10/18 06:11:26;;;;;;;7.18;3.63;;;6.50;99.90;;;;;;5054309;28;20041;-65
2022/10/18 06:13:53;;;;;;;7.95;4.50;;;6.50;99.90;;;;;;5054594;28;20092;-65
2022/10/18 06:16:20;;;;;;;6.07;3.45;;;6.50;99.90;;;;;;5056612;28;20111;-64
2022/10/18 06:18:51;;;;;;;7.28;3.75;;;6.50;99.90;;;;;;5054059;28;20048;-65
2022/10/18 06:21:18;;;;;;;7.18;2.80;;;6.50;99.90;;;;;;5054296;28;20077;-65
2022/10/18 06:23:50;;;;;;;7.13;2.90;;;6.50;99.90;;;;;;5054980;28;20041;-65
2022/10/18 06:26:17;;;;;;;6.35;3.78;;;6.40;99.90;;;;;;5054421;28;20496;-65
2022/10/18 06:28:44;;;;;;;5.43;2.80;;;6.40;99.90;;;;;;5054795;28;20051;-65
2022/10/18 06:31:11;;;;;;;6.10;2.80;;;6.30;99.90;;;;;;5055713;28;20346;-65
2022/10/18 06:33:38;;;;;;;7.35;2.60;;;6.30;99.90;;;;;;5038333;28;20110;-64
2022/10/18 06:36:06;;;;;;;3.67;2.40;;;6.40;99.90;;;;;;5055144;28;20041;-65
2022/10/18 06:38:33;;;;;;;6.85;3.22;;;6.40;99.90;;;;;;5053890;28;20036;-65
2022/10/18 06:41:00;;;;;;;4.68;2.50;;;6.50;99.90;;;;;;5056272;28;20412;-65
2022/10/18 06:43:27;;;;;;;5.90;2.63;;;6.50;99.90;;;;;;5055482;28;20045;-65
2022/10/18 06:45:54;;;;;;;7.90;3.25;;;6.50;99.90;;;;;;5053785;28;20091;-70
2022/10/18 06:48:21;;;;;;;70.95;46.58;;;6.50;99.90;;;;;;5055343;28;20044;-65
2022/10/18 06:50:55;;;;;;;23.48;16.23;;;6.50;99.90;;;;;;5038310;28;20095;-66
2022/10/18 06:53:27;;;;;;;24.85;14.05;;;6.60;99.90;;;;;;5054088;28;20040;-65
2022/10/18 06:56:02;;;;;;;11.52;6.38;;;6.50;99.90;;;;;;5053809;28;20045;-65
2022/10/18 06:58:29;;;;;;;9.43;5.25;;;6.60;99.90;;;;;;5055232;28;20511;-65
2022/10/18 07:00:56;;;;;;;11.38;6.55;;;6.60;99.90;;;;;;5053994;28;20144;-65
2022/10/18 07:03:23;;;;;;;11.23;5.38;;;6.60;99.90;;;;;;5054888;28;20084;-65
2022/10/18 07:05:50;;;;;;;7.13;4.07;;;6.60;99.90;;;;;;5053474;28;20049;-65
2022/10/18 07:08:16;;;;;;;14.82;5.28;;;6.60;99.90;;;;;;5053358;28;20049;-64
2022/10/18 07:10:51;;;;;;;11.45;4.30;;;6.60;99.90;;;;;;5036895;28;20110;-66
2022/10/18 07:13:19;;;;;;;233.57;158.32;;;6.70;99.90;;;;;;5054168;28;20053;-63
2022/10/18 07:16:05;;;;;;;25.63;15.65;;;6.70;99.90;;;;;;5054639;28;20079;-62
2022/10/18 07:18:35;;;;;;;16.77;9.63;;;6.80;99.90;;;;;;5054699;28;20041;-62
2022/10/18 07:21:03;;;;;;;10.63;5.93;;;6.80;99.90;;;;;;5053029;28;20509;-62
2022/10/18 07:23:34;;;;;;;15.55;5.50;;;6.90;99.90;;;;;;5054605;28;20095;-62
2022/10/18 07:26:02;;;;;;;16.05;5.65;;;6.90;99.90;;;;;;5053561;28;20094;-61
2022/10/18 07:28:29;;;;;;;17.65;5.40;;;6.90;99.90;;;;;;5052870;28;20048;-61
2022/10/18 07:30:56;;;;;;;22.27;6.47;;;7.00;99.90;;;;;;5054432;28;20049;-61
2022/10/18 07:33:30;;;;;;;20.77;6.38;;;7.00;99.90;;;;;;5053145;28;20045;-61
2022/10/18 07:36:02;;;;;;;20.90;7.22;;;7.10;99.90;;;;;;5054272;28;20190;-61
2022/10/18 07:38:29;;;;;;;18.25;5.45;;;7.20;99.90;;;;;;5052728;28;20089;-62
2022/10/18 07:40:57;;;;;;;34.00;7.28;;;7.30;99.90;;;;;;5036122;28;20436;-63
2022/10/18 07:43:24;;;;;;;23.27;6.32;;;7.30;99.90;;;;;;5054392;28;20052;-65
2022/10/18 07:45:55;;;;;;;24.25;8.07;;;7.40;99.90;;;;;;5052592;28;20483;-65
2022/10/18 07:48:22;;;;;;;20.38;7.38;;;7.50;99.90;;;;;;5053851;28;20481;-54
2022/10/18 07:50:49;;;;;;;27.38;8.43;;;7.50;99.90;;;;;;5036227;28;20045;-65
2022/10/18 07:53:16;;;;;;;23.58;8.10;;;7.60;99.90;;;;;;5053087;28;20369;-65
2022/10/18 07:55:43;;;;;;;17.85;7.10;;;7.60;99.90;;;;;;5054972;28;20041;-65
2022/10/18 07:58:10;;;;;;;16.52;8.25;;;7.80;99.90;;;;;;5053704;28;20114;-65
2022/10/18 08:00:38;;;;;;;19.67;8.45;;;7.80;99.90;;;;;;5053342;28;20052;-64
2022/10/18 08:03:05;;;;;;;309.25;200.25;;;7.90;99.90;;;;;;5053494;28;20041;-65
2022/10/18 08:05:32;;;;;;;385.77;300.60;;;7.90;99.90;;;;;;5053182;28;20045;-65
2022/10/18 08:08:04;;;;;;;93.32;69.55;;;8.00;99.90;;;;;;5052594;28;20103;-64
2022/10/18 08:10:34;;;;;;;49.95;34.83;;;8.00;99.90;;;;;;5053585;28;20068;-65
2022/10/18 08:13:01;;;;;;;32.83;20.17;;;8.10;99.90;;;;;;5069752;28;20071;-64
2022/10/18 08:15:27;;;;;;;23.65;12.05;;;8.20;99.90;;;;;;5053781;28;20439;-66
2022/10/18 08:17:54;;;;;;;21.80;9.27;;;8.20;99.90;;;;;;5052094;28;20477;-66
2022/10/18 08:20:21;;;;;;;20.48;8.65;;;8.30;99.90;;;;;;5052681;28;20094;-64
2022/10/18 08:22:57;;;;;;;20.98;8.52;;;8.40;99.90;;;;;;5052994;28;20079;-64
2022/10/18 08:25:27;;;;;;;22.02;8.07;;;8.40;99.90;;;;;;5051664;28;20094;-66
2022/10/18 08:27:54;;;;;;;25.38;9.35;;;8.50;99.90;;;;;;5035702;28;20389;-66
2022/10/18 08:30:22;;;;;;;39.38;11.32;;;8.60;99.90;;;;;;5054199;28;20049;-67
2022/10/18 08:32:49;;;;;;;34.95;11.93;;;8.70;99.90;;;;;;5052481;28;20186;-66
2022/10/18 08:35:15;;;;;;;30.38;7.90;;;8.80;99.90;;;;;;5052393;28;20423;-66
2022/10/18 08:37:44;;;;;;;21.67;8.93;;;8.90;99.90;;;;;;5052303;28;20052;-64
2022/10/18 08:40:14;;;;;;;38.05;11.18;;;9.00;99.90;;;;;;5052905;28;20128;-65
2022/10/18 08:42:46;;;;;;;133.90;78.25;;;9.10;99.90;;;;;;5053711;28;20064;-64
2022/10/18 08:45:13;;;;;;;26.55;13.80;;;9.30;99.90;;;;;;5053488;28;20045;-63
2022/10/18 08:48:00;;;;;;;22.25;9.38;;;9.40;99.90;;;;;;5066078;28;20045;-64
2022/10/18 08:50:35;;;;;;;16.90;7.82;;;9.50;99.90;;;;;;5052420;28;20049;-64
2022/10/18 08:53:05;;;;;;;20.20;8.13;;;9.60;99.90;;;;;;5051889;28;20045;-63
2022/10/18 08:55:38;;;;;;;17.45;7.43;;;9.70;99.90;;;;;;5052621;28;20040;-63
2022/10/18 08:58:25;;;;;;;16.08;7.90;;;9.80;99.90;;;;;;5035549;28;20045;-64
2022/10/18 09:01:04;;;;;;;18.58;6.22;;;10.10;99.90;;;;;;5051362;28;20055;-63
2022/10/18 09:04:00;;;;;;;19.65;6.22;;;10.30;99.90;;;;;;5052111;28;20052;-63
2022/10/18 09:06:33;;;;;;;15.23;5.90;;;10.40;99.90;;;;;;5052383;28;20045;-63
2022/10/18 09:09:24;;;;;;;10.85;5.22;;;10.60;99.90;;;;;;5050966;28;20080;-64
2022/10/18 09:12:16;;;;;;;17.80;5.25;;;10.70;99.90;;;;;;5051574;28;20045;-63
2022/10/18 09:14:52;;;;;;;13.50;4.45;;;10.90;99.90;;;;;;5052418;28;20087;-63
2022/10/18 09:17:25;;;;;;;29.10;5.78;;;11.00;99.90;;;;;;5053544;28;20468;-63
2022/10/18 09:20:22;;;;;;;15.32;5.60;;;11.20;99.90;;;;;;5053403;28;20041;-63
2022/10/18 09:22:51;;;;;;;14.50;4.47;;;11.30;99.90;;;;;;5034440;28;20045;-63
2022/10/18 09:25:22;;;;;;;9.57;4.93;;;11.50;99.90;;;;;;5051689;28;20519;-63
2022/10/18 09:27:53;;;;;;;15.15;4.72;;;11.60;99.90;;;;;;5052890;28;20285;-64
2022/10/18 09:30:58;;;;;;;14.93;5.15;;;11.70;99.90;;;;;;5035603;28;20037;-64
2022/10/18 09:33:34;;;;;;;13.65;4.80;;;11.80;99.90;;;;;;5037588;28;20040;-64
2022/10/18 09:36:04;;;;;;;15.00;5.75;;;12.00;99.90;;;;;;5057219;28;20059;-64
2022/10/18 09:38:45;;;;;;;16.25;6.97;;;12.00;99.90;;;;;;5054939;28;20094;-64
2022/10/18 09:41:34;;;;;;;22.13;7.25;;;12.10;99.90;;;;;;5055638;28;20044;-64
2022/10/18 09:44:13;;;;;;;17.75;6.22;;;12.20;99.90;;;;;;5055221;28;20468;-64
2022/10/18 09:46:48;;;;;;;22.83;5.93;;;12.20;99.90;;;;;;5055689;28;20090;-64
2022/10/18 09:49:22;;;;;;;15.50;5.00;;;12.30;99.90;;;;;;5055194;28;20041;-64
2022/10/18 09:51:50;;;;;;;13.60;6.00;;;12.30;99.90;;;;;;5055004;28;20117;-64
2022/10/18 09:54:37;;;;;;;16.92;6.05;;;12.30;99.90;;;;;;5056351;28;20041;-64
2022/10/18 09:57:11;;;;;;;14.63;5.03;;;12.40;99.90;;;;;;5055161;28;20044;-64
2022/10/18 09:59:46;;;;;;;12.07;5.70;;;12.50;99.90;;;;;;5057034;28;20110;-64
2022/10/18 10:02:14;;;;;;;14.43;5.07;;;12.50;99.90;;;;;;5054512;28;20538;-64
2022/10/18 10:04:41;;;;;;;13.47;4.43;;;12.70;99.90;;;;;;5055104;28;20435;-65
2022/10/18 10:07:12;;;;;;;10.27;4.03;;;12.70;99.90;;;;;;5038121;28;20278;-65
2022/10/18 10:09:43;;;;;;;17.08;4.93;;;12.80;99.90;;;;;;5038764;28;20064;-65
2022/10/18 10:12:30;;;;;;;10.38;4.47;;;12.90;99.90;;;;;;5038830;28;20079;-65
2022/10/18 10:15:16;;;;;;;13.85;4.35;;;13.00;99.90;;;;;;5055340;28;20051;-65
2022/10/18 10:17:54;;;;;;;12.45;4.03;;;13.00;99.90;;;;;;5054336;28;20473;-65
2022/10/18 10:20:22;;;;;;;13.38;4.50;;;13.10;99.90;;;;;;5038524;28;20044;-65
2022/10/18 10:22:49;;;;;;;13.75;4.15;;;13.10;99.90;;;;;;5054999;28;20106;-65
2022/10/18 10:25:30;;;;;;;13.27;4.00;;;13.10;99.90;;;;;;5038056;28;20060;-65
2022/10/18 10:28:05;;;;;;;8.23;3.63;;;13.10;99.90;;;;;;5054843;28;20045;-65
2022/10/18 10:30:34;;;;;;;14.63;4.75;;;13.20;99.90;;;;;;5055205;28;20045;-65
2022/10/18 10:33:01;;;;;;;9.95;3.95;;;13.30;99.90;;;;;;5056558;28;20098;-65
2022/10/18 10:35:29;;;;;;;9.68;3.95;;;13.30;99.90;;;;;;5037901;28;20053;-64
2022/10/18 10:38:27;;;;;;;16.13;4.75;;;13.40;99.90;;;;;;5054783;28;20364;-65
2022/10/18 10:40:54;;;;;;;9.82;3.50;;;13.40;99.90;;;;;;5054426;28;20083;-64
2022/10/18 10:43:24;;;;;;;10.70;3.78;;;13.50;99.90;;;;;;5053662;28;20044;-62
2022/10/18 10:46:07;;;;;;;8.30;2.95;;;13.50;99.90;;;;;;5054203;28;20163;-65
2022/10/18 10:48:40;;;;;;;10.32;3.75;;;13.60;99.90;;;;;;5054021;28;20045;-65
2022/10/18 10:51:10;;;;;;;12.05;3.25;;;13.70;99.90;;;;;;5055141;28;20037;-65
2022/10/18 10:54:03;;;;;;;8.98;3.40;;;13.70;99.90;;;;;;5053730;28;20052;-65
2022/10/18 10:56:34;;;;;;;10.80;2.90;;;13.80;99.90;;;;;;5055226;28;20094;-65
2022/10/18 10:59:16;;;;;;;9.77;2.67;;;14.00;99.90;;;;;;5054821;28;20055;-65
2022/10/18 11:01:50;;;;;;;15.65;4.35;;;14.00;99.90;;;;;;5037350;28;20095;-65
2022/10/18 11:04:28;;;;;;;9.00;3.13;;;14.10;99.90;;;;;;5054505;28;20044;-65
2022/10/18 11:07:01;;;;;;;24.27;12.65;;;14.10;99.90;;;;;;5036972;28;20045;-66
2022/10/18 11:09:46;;;;;;;13.75;5.03;;;14.10;99.90;;;;;;5053651;28;20060;-67
2022/10/18 11:12:37;;;;;;;9.57;2.72;;;14.20;99.90;;;;;;5053538;28;20080;-65
2022/10/18 11:15:13;;;;;;;10.15;2.67;;;14.30;99.90;;;;;;5044650;28;20041;-65
2022/10/18 11:17:46;;;;;;;19.27;4.28;;;14.40;99.90;;;;;;5055297;28;20122;-65
2022/10/18 11:20:37;;;;;;;11.15;2.85;;;14.40;99.90;;;;;;5053050;28;20060;-62
2022/10/18 11:23:10;;;;;;;6.80;2.50;;;14.50;99.90;;;;;;5053448;28;20057;-66
2022/10/18 11:25:45;;;;;;;10.20;2.60;;;14.60;99.90;;;;;;5054528;28;20460;-62
2022/10/18 11:28:23;;;;;;;8.48;3.35;;;14.60;99.90;;;;;;5055193;28;20431;-64
2022/10/18 11:30:58;;;;;;;8.63;2.70;;;14.70;99.90;;;;;;5053281;28;20504;-64
2022/10/18 11:33:52;;;;;;;7.82;2.55;;;14.80;99.90;;;;;;5036595;28;20099;-63
2022/10/18 11:36:51;;;;;;;9.27;3.55;;;14.80;99.90;;;;;;5053469;28;20084;-66
2022/10/18 11:39:41;;;;;;;8.80;1.95;;;14.80;99.90;;;;;;5053902;28;20434;-62
2022/10/18 11:42:19;;;;;;;9.15;2.42;;;14.90;99.90;;;;;;5054177;28;20040;-65
2022/10/18 11:44:56;;;;;;;8.80;2.42;;;14.90;99.90;;;;;;5036501;28;20048;-65
2022/10/18 11:47:41;;;;;;;6.80;2.60;;;15.00;99.90;;;;;;5037710;28;20523;-65
2022/10/18 11:50:26;;;;;;;6.45;2.30;;;15.10;99.90;;;;;;5053271;28;20044;-61
2022/10/18 11:52:53;;;;;;;11.38;3.45;;;15.10;99.90;;;;;;5054514;28;20145;-62
2022/10/18 11:55:31;;;;;;;8.85;2.50;;;15.20;99.90;;;;;;5053757;28;20041;-62
2022/10/18 11:58:23;;;;;;;5.82;3.17;;;15.20;99.90;;;;;;5036817;28;20041;-62
2022/10/18 12:00:55;;;;;;;8.55;2.70;;;15.30;99.90;;;;;;5053433;28;20041;-61
2022/10/18 12:03:43;;;;;;;10.45;3.08;;;15.20;99.90;;;;;;5054151;28;20052;-62
2022/10/18 12:06:15;;;;;;;7.70;2.30;;;15.30;99.90;;;;;;5054242;28;20040;-62
2022/10/18 12:08:50;;;;;;;6.15;2.25;;;15.40;99.90;;;;;;5052036;28;20101;-61
2022/10/18 12:11:27;;;;;;;8.38;2.83;;;15.40;99.90;;;;;;5052562;28;20052;-63
2022/10/18 12:13:57;;;;;;;14.30;6.65;;;15.40;99.90;;;;;;5052688;28;20557;-62
2022/10/18 12:16:26;;;;;;;9.73;3.20;;;15.40;99.90;;;;;;5036121;28;20095;-62
2022/10/18 12:19:24;;;;;;;11.05;3.70;;;15.40;99.90;;;;;;5053883;28;20037;-64
2022/10/18 12:21:57;;;;;;;9.35;2.72;;;15.50;99.90;;;;;;5053388;28;20124;-65
2022/10/18 12:24:26;;;;;;;10.50;2.95;;;15.50;99.90;;;;;;5053108;28;20037;-64
2022/10/18 12:26:59;;;;;;;6.82;3.10;;;15.60;99.90;;;;;;5035883;28;20045;-64
2022/10/18 12:29:32;;;;;;;10.07;3.35;;;15.60;99.90;;;;;;5054127;28;20090;-63
2022/10/18 12:32:02;;;;;;;9.07;2.53;;;15.70;99.90;;;;;;5053412;28;20209;-63
2022/10/18 12:34:34;;;;;;;9.63;2.55;;;15.70;99.90;;;;;;5052040;28;20522;-64
2022/10/18 12:37:23;;;;;;;9.25;2.70;;;15.80;99.90;;;;;;5052219;28;20052;-64
2022/10/18 12:39:51;;;;;;;;;;;15.80;99.90;;;;;;5053087;28;20060;-63
2022/10/18 12:42:43;;;;;;;13.02;3.10;;;15.80;99.90;;;;;;5052770;28;19923;-64
2022/10/18 12:45:15;;;;;;;6.55;2.63;;;15.80;99.90;;;;;;5052498;28;20041;-63
2022/10/18 12:47:42;;;;;;;9.35;2.75;;;15.70;99.90;;;;;;5053300;28;20162;-64
2022/10/18 12:50:30;;;;;;;220.90;182.57;;;15.80;99.90;;;;;;5053014;28;20053;-65
2022/10/18 12:53:23;;;;;;;28.80;20.80;;;15.80;99.90;;;;;;5070410;28;20045;-64
2022/10/18 12:55:50;;;;;;;13.45;6.50;;;15.90;99.90;;;;;;5038416;28;20048;-64
2022/10/18 12:58:20;;;;;;;11.93;3.95;;;15.90;99.90;;;;;;5051899;28;20045;-65
2022/10/18 13:00:47;;;;;;;8.20;2.88;;;15.90;99.90;;;;;;5052976;28;20053;-65
2022/10/18 13:03:17;;;;;;;7.60;2.30;;;16.00;99.90;;;;;;5052549;28;20045;-65
2022/10/18 13:05:50;;;;;;;7.32;2.33;;;16.10;99.90;;;;;;5052582;28;20044;-63
2022/10/18 13:08:26;;;;;;;8.00;2.75;;;16.10;99.90;;;;;;5054016;28;20049;-63
2022/10/18 13:11:09;;;;;;;5.20;2.10;;;16.10;99.90;;;;;;5059992;28;20044;-63
2022/10/18 13:14:13;;;;;;;8.13;2.03;;;16.10;99.90;;;;;;5059444;28;20040;-62
2022/10/18 13:17:17;;;;;;;6.95;2.90;;;16.20;99.90;;;;;;5059934;28;20072;-63